createdAt,value
2022-09-23T00:02:02.297Z,5.82
2022-09-23T00:04:30.970Z,5.93
2022-09-23T00:06:59.664Z,6.10
2022-09-23T00:09:28.339Z,8.05
2022-09-23T00:11:56.932Z,8.63
2022-09-23T00:14:25.663Z,8.70
2022-09-23T00:16:55.555Z,9.80
2022-09-23T00:19:24.218Z,8.48
2022-09-23T00:21:52.794Z,8.13
2022-09-23T00:24:21.586Z,6.97
2022-09-23T00:26:50.173Z,6.82
2022-09-23T00:29:19.042Z,7.53
2022-09-23T00:31:48.241Z,7.10
2022-09-23T00:34:18.136Z,7.90
2022-09-23T00:36:46.945Z,7.32
2022-09-23T00:39:15.501Z,6.82
2022-09-23T00:41:44.085Z,7.67
2022-09-23T00:44:44.901Z,7.13
2022-09-23T00:47:17.994Z,6.78
2022-09-23T00:49:51.001Z,6.10
2022-09-23T00:52:21.955Z,5.70
2022-09-23T00:54:50.732Z,5.87
2022-09-23T00:57:20.006Z,5.15
2022-09-23T00:59:50.538Z,4.57
2022-09-23T01:02:21.854Z,4.70
2022-09-23T01:04:52.753Z,4.53
2022-09-23T01:07:21.926Z,4.00
2022-09-23T01:09:50.592Z,4.30
2022-09-23T01:12:38.463Z,4.38
2022-09-23T01:15:14.079Z,4.25
2022-09-23T01:17:50.447Z,4.38
2022-09-23T01:20:56.466Z,3.87
2022-09-23T01:23:49.261Z,3.90
2022-09-23T01:26:38.784Z,3.70
2022-09-23T01:29:47.944Z,3.85
2022-09-23T01:32:23.721Z,3.60
2022-09-23T01:34:59.584Z,3.43
2022-09-23T01:37:36.170Z,4.22
2022-09-23T01:40:10.387Z,4.00
2022-09-23T01:42:42.483Z,3.78
2022-09-23T01:45:16.207Z,3.53
2022-09-23T01:47:51.353Z,3.23
2022-09-23T01:50:38.883Z,3.85
2022-09-23T01:53:14.159Z,3.70
2022-09-23T01:55:47.636Z,3.70
2022-09-23T01:58:20.382Z,4.18
2022-09-23T02:00:53.391Z,4.40
2022-09-23T02:03:26.945Z,5.32
2022-09-23T02:05:59.456Z,3.40
2022-09-23T02:08:33.083Z,3.55
2022-09-23T02:11:08.290Z,3.50
2022-09-23T02:13:43.320Z,3.83
2022-09-23T02:16:18.515Z,3.75
2022-09-23T02:18:53.108Z,4.10
2022-09-23T02:21:25.199Z,3.83
2022-09-23T02:23:59.659Z,4.20
2022-09-23T02:26:33.031Z,3.83
2022-09-23T02:29:09.011Z,3.63
2022-09-23T02:31:42.082Z,3.35
2022-09-23T02:34:22.050Z,4.10
2022-09-23T02:37:06.518Z,3.95
2022-09-23T02:39:42.986Z,3.93
2022-09-23T02:42:16.556Z,3.70
2022-09-23T02:44:45.121Z,3.83
2022-09-23T02:47:13.688Z,3.88
2022-09-23T02:49:43.438Z,3.58
2022-09-23T02:52:13.711Z,3.90
2022-09-23T02:54:42.543Z,4.00
2022-09-23T02:57:11.489Z,4.18
2022-09-23T02:59:40.819Z,4.20
2022-09-23T03:02:51.231Z,4.07
2022-09-23T03:05:25.909Z,3.83
2022-09-23T03:08:12.796Z,4.05
2022-09-23T03:10:53.655Z,4.13
2022-09-23T03:13:31.788Z,4.00
2022-09-23T03:16:10.619Z,4.32
2022-09-23T03:18:42.763Z,3.90
2022-09-23T03:21:17.489Z,3.75
2022-09-23T03:23:47.822Z,4.13
2022-09-23T03:26:20.320Z,4.35
2022-09-23T03:28:50.328Z,4.07
2022-09-23T03:31:19.301Z,4.43
2022-09-23T03:33:59.987Z,4.22
2022-09-23T03:36:54.046Z,4.47
2022-09-23T03:39:30.997Z,4.10
2022-09-23T03:42:02.773Z,4.35
2022-09-23T03:44:32.051Z,4.37
2022-09-23T03:47:00.788Z,4.75
2022-09-23T03:49:34.491Z,5.47
2022-09-23T03:52:04.345Z,4.90
2022-09-23T03:54:34.073Z,4.97
2022-09-23T03:57:03.289Z,4.90
2022-09-23T03:59:31.791Z,5.18
2022-09-23T04:02:01.947Z,4.55
2022-09-23T04:04:34.082Z,4.47
2022-09-23T04:07:04.012Z,4.15
2022-09-23T04:09:32.674Z,4.10
2022-09-23T04:12:01.302Z,4.38
2022-09-23T04:14:29.874Z,4.88
2022-09-23T04:16:58.874Z,4.60
2022-09-23T04:19:27.561Z,5.20
2022-09-23T04:21:56.117Z,4.43
2022-09-23T04:24:25.841Z,4.95
2022-09-23T04:26:55.057Z,5.07
2022-09-23T04:29:24.041Z,4.82
2022-09-23T04:31:52.728Z,4.80
2022-09-23T04:34:21.578Z,4.67
2022-09-23T04:36:50.603Z,5.65
2022-09-23T04:39:20.229Z,5.72
2022-09-23T04:41:49.706Z,5.45
2022-09-23T04:44:18.909Z,5.15
2022-09-23T04:46:49.421Z,5.50
2022-09-23T04:49:18.273Z,5.45
2022-09-23T04:51:46.894Z,5.55
2022-09-23T04:54:18.170Z,5.60
2022-09-23T04:56:47.087Z,5.05
2022-09-23T04:59:16.882Z,5.53
2022-09-23T05:01:59.219Z,5.88
2022-09-23T05:04:27.669Z,5.45
2022-09-23T05:06:57.453Z,5.50
2022-09-23T05:09:29.180Z,6.00
2022-09-23T05:11:57.578Z,5.67
2022-09-23T05:14:27.049Z,5.47
2022-09-23T05:16:55.375Z,5.68
2022-09-23T05:19:23.756Z,6.05
2022-09-23T05:21:52.122Z,5.97
2022-09-23T05:24:20.528Z,5.97
2022-09-23T05:26:48.955Z,6.43
2022-09-23T05:29:20.574Z,6.28
2022-09-23T05:31:50.146Z,6.15
2022-09-23T05:34:18.765Z,5.85
2022-09-23T05:36:50.702Z,6.60
2022-09-23T05:39:18.720Z,6.65
2022-09-23T05:41:47.113Z,7.15
2022-09-23T05:44:15.447Z,6.95
2022-09-23T05:46:43.926Z,6.97
2022-09-23T05:49:15.080Z,7.50
2022-09-23T05:51:43.612Z,7.00
2022-09-23T05:54:14.793Z,6.95
2022-09-23T05:56:45.316Z,7.38
2022-09-23T05:59:14.076Z,7.57
2022-09-23T06:02:10.482Z,7.37
2022-09-23T06:05:14.896Z,6.90
2022-09-23T06:07:54.398Z,7.03
2022-09-23T06:10:22.873Z,6.70
2022-09-23T06:12:51.327Z,7.20
2022-09-23T06:15:19.459Z,7.57
2022-09-23T06:17:50.601Z,7.13
2022-09-23T06:20:20.233Z,7.85
2022-09-23T06:22:52.497Z,7.63
2022-09-23T06:25:25.003Z,8.05
2022-09-23T06:27:56.457Z,7.97
2022-09-23T06:30:28.762Z,7.75
2022-09-23T06:32:58.595Z,8.80
2022-09-23T06:35:28.914Z,7.45
2022-09-23T06:37:57.999Z,7.80
2022-09-23T06:40:26.689Z,8.80
2022-09-23T06:42:59.473Z,9.25
2022-09-23T06:45:28.446Z,9.00
2022-09-23T06:47:57.988Z,9.77
2022-09-23T06:50:29.115Z,8.68
2022-09-23T06:52:58.463Z,7.87
2022-09-23T06:55:27.969Z,7.43
2022-09-23T06:57:56.795Z,7.10
2022-09-23T07:00:26.356Z,7.57
2022-09-23T07:02:55.871Z,7.85
2022-09-23T07:05:24.376Z,7.20
2022-09-23T07:07:54.678Z,7.15
2022-09-23T07:10:23.068Z,7.85
2022-09-23T07:12:51.621Z,7.65
2022-09-23T07:15:19.944Z,7.18
2022-09-23T07:17:49.415Z,6.63
2022-09-23T07:20:17.991Z,7.05
2022-09-23T07:22:52.275Z,7.30
2022-09-23T07:25:23.045Z,6.88
2022-09-23T07:27:51.399Z,6.70
2022-09-23T07:30:25.084Z,6.23
2022-09-23T07:32:54.015Z,5.97
2022-09-23T07:35:22.378Z,6.07
2022-09-23T07:37:51.816Z,5.43
2022-09-23T07:40:21.546Z,5.78
2022-09-23T07:43:03.489Z,5.10
2022-09-23T07:45:33.122Z,5.30
2022-09-23T07:48:01.881Z,5.05
2022-09-23T07:50:32.294Z,5.18
2022-09-23T07:53:03.057Z,4.50
2022-09-23T07:55:32.746Z,4.90
2022-09-23T07:58:05.955Z,5.93
2022-09-23T08:00:35.815Z,5.13
2022-09-23T08:03:04.649Z,5.03
2022-09-23T08:05:33.154Z,5.43
2022-09-23T08:08:01.680Z,5.00
2022-09-23T08:10:30.123Z,5.13
2022-09-23T08:13:00.126Z,4.72
2022-09-23T08:15:28.614Z,4.88
2022-09-23T08:17:59.771Z,4.50
2022-09-23T08:20:47.843Z,4.77
2022-09-23T08:23:18.657Z,4.07
2022-09-23T08:25:50.413Z,4.32
2022-09-23T08:28:20.086Z,4.60
2022-09-23T08:30:50.319Z,4.40
2022-09-23T08:33:23.088Z,4.10
2022-09-23T08:35:55.875Z,4.60
2022-09-23T08:38:24.792Z,4.40
2022-09-23T08:40:57.169Z,4.38
2022-09-23T08:43:29.234Z,4.80
2022-09-23T08:46:01.437Z,4.70
2022-09-23T08:48:32.125Z,4.30
2022-09-23T08:51:05.567Z,4.75
2022-09-23T08:53:36.596Z,4.20
2022-09-23T08:56:08.324Z,4.28
2022-09-23T08:58:57.579Z,4.33
2022-09-23T09:02:06.391Z,4.60
2022-09-23T09:04:44.614Z,5.10
2022-09-23T09:07:36.359Z,5.18
2022-09-23T09:10:11.767Z,5.75
2022-09-23T09:12:44.347Z,4.73
2022-09-23T09:15:17.421Z,5.00
2022-09-23T09:17:52.811Z,5.80
2022-09-23T09:20:24.620Z,5.10
2022-09-23T09:22:57.688Z,5.45
2022-09-23T09:25:47.945Z,5.03
2022-09-23T09:28:20.927Z,5.15
2022-09-23T09:30:56.768Z,5.25
2022-09-23T09:33:30.535Z,5.15
2022-09-23T09:36:08.895Z,5.47
2022-09-23T09:38:37.263Z,5.63
2022-09-23T09:41:14.311Z,5.72
2022-09-23T09:43:44.288Z,5.20
2022-09-23T09:47:18.214Z,4.50
2022-09-23T09:50:09.779Z,4.60
2022-09-23T09:52:53.873Z,4.40
2022-09-23T10:11:30.431Z,4.40
2022-09-23T10:30:43.275Z,4.00
2022-09-23T10:33:51.629Z,3.65
2022-09-23T10:40:48.184Z,3.10
2022-09-23T10:44:45.620Z,3.58
2022-09-23T10:54:59.933Z,3.03
2022-09-23T10:57:44.908Z,3.10
2022-09-23T11:00:23.324Z,3.15
2022-09-23T11:03:10.507Z,2.87
2022-09-23T11:05:48.727Z,2.63
2022-09-23T11:08:36.477Z,2.70
2022-09-23T11:11:22.471Z,2.60
2022-09-23T11:14:17.160Z,2.50
2022-09-23T11:17:14.963Z,2.70
2022-09-23T11:20:06.238Z,2.53
2022-09-23T11:22:53.105Z,2.60
2022-09-23T11:25:35.206Z,2.28
2022-09-23T11:28:32.753Z,2.50
2022-09-23T11:31:10.695Z,2.33
2022-09-23T11:33:57.488Z,2.17
2022-09-23T11:36:32.817Z,2.20
2022-09-23T11:39:10.104Z,2.05
2022-09-23T11:41:46.136Z,2.28
2022-09-23T11:44:34.684Z,1.97
2022-09-23T11:47:10.112Z,2.40
2022-09-23T11:49:47.627Z,2.58
2022-09-23T11:52:22.895Z,2.60
2022-09-23T11:54:58.032Z,3.00
2022-09-23T11:57:47.288Z,3.00
2022-09-23T12:00:25.398Z,3.20
2022-09-23T12:03:09.442Z,3.17
2022-09-23T12:05:41.013Z,2.92
2022-09-23T12:08:21.738Z,3.55
2022-09-23T12:10:54.526Z,3.73
2022-09-23T12:13:27.869Z,3.83
2022-09-23T12:16:14.970Z,3.58
2022-09-23T12:19:04.572Z,3.17
2022-09-23T12:21:59.326Z,3.13
2022-09-23T12:24:48.346Z,3.10
2022-09-23T12:27:33.365Z,3.97
2022-09-23T12:30:22.463Z,2.92
2022-09-23T12:33:21.626Z,3.83
2022-09-23T12:35:53.275Z,3.83
2022-09-23T12:38:26.936Z,3.83
2022-09-23T12:40:57.257Z,3.67
2022-09-23T12:46:45.010Z,3.30
2022-09-23T12:49:26.341Z,3.80
2022-09-23T12:52:14.013Z,3.20
2022-09-23T12:55:32.029Z,3.00
2022-09-23T12:58:36.360Z,3.30
2022-09-23T13:01:09.422Z,3.28
2022-09-23T13:04:10.914Z,3.42
2022-09-23T13:06:43.582Z,2.97
2022-09-23T13:09:16.452Z,3.58
2022-09-23T13:11:48.018Z,3.38
2022-09-23T13:14:25.291Z,2.90
2022-09-23T13:16:57.179Z,3.33
2022-09-23T13:19:46.417Z,3.53
2022-09-23T13:22:43.900Z,3.60
2022-09-23T13:25:20.893Z,2.88
2022-09-23T13:27:53.643Z,3.28
2022-09-23T13:30:26.401Z,3.10
2022-09-23T13:33:05.135Z,3.20
2022-09-23T13:35:36.709Z,3.35
2022-09-23T13:38:13.200Z,3.15
2022-09-23T13:40:42.550Z,3.05
2022-09-23T13:43:24.484Z,3.05
2022-09-23T13:45:52.892Z,3.33
2022-09-23T13:48:24.726Z,4.18
2022-09-23T13:50:54.643Z,3.42
2022-09-23T13:53:27.637Z,2.95
2022-09-23T13:56:04.633Z,3.13
2022-09-23T13:58:33.987Z,3.30
2022-09-23T14:01:02.420Z,3.60
2022-09-23T14:03:37.132Z,3.03
2022-09-23T14:06:08.664Z,3.80
2022-09-23T14:08:40.834Z,3.47
2022-09-23T14:11:09.208Z,3.60
2022-09-23T14:13:43.168Z,3.22
2022-09-23T14:16:14.789Z,3.50
2022-09-23T14:18:46.693Z,3.28
2022-09-23T14:21:29.048Z,2.83
2022-09-23T14:24:06.209Z,3.20
2022-09-23T14:26:34.902Z,3.25
2022-09-23T14:29:03.303Z,3.20
2022-09-23T14:31:32.954Z,3.22
2022-09-23T14:34:01.054Z,3.20
2022-09-23T14:36:46.583Z,2.77
2022-09-23T14:39:17.501Z,3.10
2022-09-23T14:41:47.202Z,2.70
2022-09-23T14:44:22.801Z,2.75
2022-09-23T14:46:57.460Z,3.00
2022-09-23T14:49:28.636Z,2.50
2022-09-23T14:52:00.629Z,3.25
2022-09-23T14:54:35.675Z,3.90
2022-09-23T14:57:19.271Z,8.60
2022-09-23T14:59:53.756Z,3.00
2022-09-23T15:02:35.622Z,3.27
2022-09-23T15:05:40.314Z,2.67
2022-09-23T15:08:10.736Z,2.88
2022-09-23T15:10:41.080Z,3.20
2022-09-23T15:13:13.824Z,3.00
2022-09-23T15:15:42.998Z,2.77
2022-09-23T15:18:18.456Z,2.88
2022-09-23T15:20:52.350Z,2.95
2022-09-23T15:23:34.914Z,3.25
2022-09-23T15:26:07.429Z,2.60
2022-09-23T15:28:35.636Z,2.67
2022-09-23T15:31:05.928Z,3.60
2022-09-23T15:33:35.368Z,2.40
2022-09-23T15:36:05.292Z,2.85
2022-09-23T15:38:33.822Z,2.50
2022-09-23T15:41:04.049Z,2.63
2022-09-23T15:43:33.525Z,2.85
2022-09-23T15:46:07.693Z,2.83
2022-09-23T15:48:40.193Z,2.55
2022-09-23T15:51:15.607Z,2.50
2022-09-23T15:53:44.266Z,3.03
2022-09-23T15:56:13.388Z,2.63
2022-09-23T15:58:42.852Z,3.10
2022-09-23T16:01:49.869Z,2.78
2022-09-23T16:04:18.493Z,2.70
2022-09-23T16:07:39.778Z,2.97
2022-09-23T16:10:08.964Z,2.90
2022-09-23T16:12:58.344Z,2.70
2022-09-23T16:15:30.821Z,2.80
2022-09-23T16:22:36.090Z,3.37
2022-09-23T16:25:05.392Z,2.97
2022-09-23T16:27:35.246Z,3.00
2022-09-23T16:30:09.062Z,2.65
2022-09-23T16:32:39.099Z,2.97
2022-09-23T16:35:08.729Z,2.77
2022-09-23T16:38:13.713Z,2.97
2022-09-23T16:40:46.883Z,3.40
2022-09-23T16:43:15.379Z,4.10
2022-09-23T16:45:43.759Z,3.90
2022-09-23T16:48:13.824Z,4.37
2022-09-23T16:50:44.168Z,4.35
2022-09-23T16:53:13.206Z,4.28
2022-09-23T16:55:41.697Z,4.35
2022-09-23T16:58:10.258Z,4.47
2022-09-23T17:00:56.147Z,3.93
2022-09-23T17:03:43.772Z,4.05
2022-09-23T17:06:13.871Z,3.70
2022-09-23T17:08:42.873Z,3.50
2022-09-23T17:11:12.086Z,3.83
2022-09-23T17:13:42.411Z,3.97
2022-09-23T17:16:12.046Z,3.55
2022-09-23T17:18:41.584Z,4.43
2022-09-23T17:21:10.405Z,4.20
2022-09-23T17:23:58.027Z,4.70
2022-09-23T17:26:28.230Z,4.00
2022-09-23T17:29:30.622Z,4.05
2022-09-23T17:32:02.330Z,4.30
2022-09-23T17:34:33.510Z,4.43
2022-09-23T17:37:03.895Z,4.72
2022-09-23T17:39:32.674Z,4.17
2022-09-23T17:42:03.987Z,4.40
2022-09-23T17:44:33.472Z,4.60
2022-09-23T17:47:02.581Z,4.38
2022-09-23T17:49:35.415Z,5.38
2022-09-23T17:52:05.682Z,4.77
2022-09-23T17:54:36.369Z,5.20
2022-09-23T17:57:05.017Z,5.43
2022-09-23T17:59:33.687Z,5.53
2022-09-23T18:02:04.283Z,5.30
2022-09-23T18:04:34.083Z,5.13
2022-09-23T18:07:04.582Z,5.13
2022-09-23T18:09:33.178Z,5.25
2022-09-23T18:12:01.927Z,5.65
2022-09-23T18:14:30.060Z,5.90
2022-09-23T18:17:01.048Z,5.97
2022-09-23T18:19:29.758Z,5.63
2022-09-23T18:22:01.513Z,6.28
2022-09-23T18:24:33.615Z,6.60
2022-09-23T18:27:10.145Z,6.05
2022-09-23T18:29:40.958Z,5.50
2022-09-23T18:32:13.836Z,6.47
2022-09-23T18:34:47.403Z,6.53
2022-09-23T18:37:18.952Z,6.70
2022-09-23T18:39:48.638Z,8.30
2022-09-23T18:42:17.073Z,8.23
2022-09-23T18:44:48.862Z,7.78
2022-09-23T18:47:39.679Z,8.50
2022-09-23T18:50:28.778Z,8.18
2022-09-23T18:53:01.151Z,8.80
2022-09-23T18:55:35.696Z,8.30
2022-09-23T18:58:08.816Z,9.48
2022-09-23T19:00:41.527Z,9.10
2022-09-23T19:03:10.684Z,9.63
2022-09-23T19:05:39.426Z,9.27
2022-09-23T19:08:10.826Z,9.20
2022-09-23T19:10:42.496Z,9.35
2022-09-23T19:13:10.902Z,8.85
2022-09-23T19:15:41.363Z,8.85
2022-09-23T19:18:29.243Z,8.65
2022-09-23T19:21:02.535Z,8.40
2022-09-23T19:23:38.756Z,8.10
2022-09-23T19:26:14.547Z,8.85
2022-09-23T19:28:43.148Z,8.48
2022-09-23T19:31:11.927Z,8.35
2022-09-23T19:33:41.344Z,8.03
2022-09-23T19:36:12.133Z,8.25
2022-09-23T19:38:41.656Z,7.90
2022-09-23T19:41:11.179Z,7.10
2022-09-23T19:43:39.745Z,7.38
2022-09-23T19:46:09.208Z,7.20
2022-09-23T19:48:37.838Z,7.05
2022-09-23T19:51:06.847Z,7.32
2022-09-23T19:53:41.412Z,6.60
2022-09-23T19:56:17.893Z,7.70
2022-09-23T19:58:47.373Z,7.33
2022-09-23T20:01:16.929Z,7.45
2022-09-23T20:03:49.240Z,8.52
2022-09-23T20:06:19.035Z,7.65
2022-09-23T20:08:48.189Z,8.60
2022-09-23T20:11:28.194Z,9.23
2022-09-23T20:14:09.513Z,9.35
2022-09-23T20:16:40.509Z,9.73
2022-09-23T20:19:09.338Z,9.10
2022-09-23T20:21:37.920Z,8.23
2022-09-23T20:24:07.846Z,7.90
2022-09-23T20:26:55.002Z,7.63
2022-09-23T20:29:25.028Z,7.90
2022-09-23T20:31:53.642Z,48.35
2022-09-23T20:34:24.802Z,27.67
2022-09-23T20:36:53.682Z,25.90
2022-09-23T20:39:22.251Z,11.93
2022-09-23T20:41:52.960Z,11.45
2022-09-23T20:44:21.384Z,18.73
2022-09-23T20:46:50.590Z,22.95
2022-09-23T20:49:19.886Z,31.63
2022-09-23T20:51:49.499Z,10.88
2022-09-23T20:54:19.362Z,8.95
2022-09-23T20:56:51.976Z,10.35
2022-09-23T20:59:28.594Z,9.90
2022-09-23T21:01:58.244Z,30.77
2022-09-23T21:04:27.566Z,13.32
2022-09-23T21:06:57.454Z,9.40
2022-09-23T21:09:28.294Z,8.43
2022-09-23T21:12:01.272Z,8.40
2022-09-23T21:14:31.415Z,15.37
2022-09-23T21:16:59.836Z,11.23
2022-09-23T21:19:28.781Z,11.25
2022-09-23T21:21:57.144Z,11.70
2022-09-23T21:25:00.378Z,21.83
2022-09-23T21:27:15.237Z,45.07
2022-09-23T21:29:43.596Z,16.50
2022-09-23T21:32:11.998Z,13.05
2022-09-23T21:35:25.819Z,12.43
2022-09-23T21:37:54.304Z,33.72
2022-09-23T21:40:43.615Z,9.70
2022-09-23T21:43:13.382Z,12.80
2022-09-23T21:45:41.917Z,8.80
2022-09-23T21:48:10.348Z,16.63
2022-09-23T21:50:42.102Z,33.25
2022-09-23T21:53:10.270Z,10.67
2022-09-23T21:55:38.714Z,7.90
2022-09-23T21:58:07.051Z,7.28
2022-09-23T22:00:40.550Z,7.45
2022-09-23T22:03:09.125Z,6.60
2022-09-23T22:05:38.016Z,7.60
2022-09-23T22:08:09.053Z,7.20
2022-09-23T22:10:38.468Z,7.30
2022-09-23T22:13:12.579Z,6.68
2022-09-23T22:15:43.002Z,6.60
2022-09-23T22:18:36.152Z,6.77
2022-09-23T22:21:04.538Z,6.78
2022-09-23T22:23:32.966Z,6.90
2022-09-23T22:26:03.333Z,6.60
2022-09-23T22:28:50.894Z,6.63
2022-09-23T22:31:37.980Z,6.63
2022-09-23T22:34:06.449Z,6.60
2022-09-23T22:36:35.042Z,6.82
2022-09-23T22:39:05.084Z,6.63
2022-09-23T22:41:35.545Z,6.95
2022-09-23T22:44:03.730Z,7.10
2022-09-23T22:46:34.627Z,6.95
2022-09-23T22:49:04.037Z,7.40
2022-09-23T22:51:32.384Z,6.85
2022-09-23T22:54:00.841Z,6.05
2022-09-23T22:56:29.559Z,6.93
2022-09-23T22:58:57.965Z,7.60
2022-09-23T23:01:26.085Z,6.97
2022-09-23T23:03:56.688Z,7.10
2022-09-23T23:06:25.263Z,6.95
2022-09-23T23:08:58.622Z,6.57
2022-09-23T23:11:26.999Z,6.93
2022-09-23T23:13:55.995Z,7.07
2022-09-23T23:16:25.314Z,7.32
2022-09-23T23:18:53.889Z,6.80
2022-09-23T23:21:23.564Z,6.93
2022-09-23T23:23:53.784Z,7.20
2022-09-23T23:26:23.377Z,6.68
2022-09-23T23:28:52.389Z,7.50
2022-09-23T23:31:22.755Z,7.43
2022-09-23T23:33:51.172Z,7.10
2022-09-23T23:36:20.915Z,7.13
2022-09-23T23:38:52.479Z,7.22
2022-09-23T23:41:23.038Z,7.55
2022-09-23T23:43:55.849Z,7.13
2022-09-23T23:46:25.347Z,7.77
2022-09-23T23:48:54.069Z,7.28
2022-09-23T23:51:22.947Z,7.43
2022-09-23T23:53:53.231Z,7.53
2022-09-23T23:56:25.012Z,7.13
2022-09-23T23:58:55.329Z,7.03
